sensor_id;sensor_type;location;lat;lon;timestamp;temperature;humidity
76577;DHT22;65441;44.748;37.600;2022-12-18T00:00:04;11.94;88.53
76577;DHT22;65441;44.748;37.600;2022-12-18T00:02:46;11.89;88.20
76577;DHT22;65441;44.748;37.600;2022-12-18T00:05:19;11.92;88.68
76577;DHT22;65441;44.748;37.600;2022-12-18T00:07:53;11.89;88.64
76577;DHT22;65441;44.748;37.600;2022-12-18T00:10:27;11.89;88.41
76577;DHT22;65441;44.748;37.600;2022-12-18T00:13:01;11.96;88.38
76577;DHT22;65441;44.748;37.600;2022-12-18T00:15:37;11.97;87.87
76577;DHT22;65441;44.748;37.600;2022-12-18T00:18:11;12.00;87.97
76577;DHT22;65441;44.748;37.600;2022-12-18T00:20:45;12.02;87.74
76577;DHT22;65441;44.748;37.600;2022-12-18T00:23:19;12.00;87.89
76577;DHT22;65441;44.748;37.600;2022-12-18T00:25:53;11.97;87.97
76577;DHT22;65441;44.748;37.600;2022-12-18T00:28:26;11.94;87.50
76577;DHT22;65441;44.748;37.600;2022-12-18T00:31:02;11.94;88.08
76577;DHT22;65441;44.748;37.600;2022-12-18T00:33:36;11.94;87.79
76577;DHT22;65441;44.748;37.600;2022-12-18T00:36:11;11.91;88.28
76577;DHT22;65441;44.748;37.600;2022-12-18T00:38:46;11.93;88.11
76577;DHT22;65441;44.748;37.600;2022-12-18T00:41:24;11.93;88.05
76577;DHT22;65441;44.748;37.600;2022-12-18T00:44:17;11.96;87.90
76577;DHT22;65441;44.748;37.600;2022-12-18T00:46:53;11.96;87.51
76577;DHT22;65441;44.748;37.600;2022-12-18T00:49:27;11.99;87.35
76577;DHT22;65441;44.748;37.600;2022-12-18T00:52:01;12.01;87.39
76577;DHT22;65441;44.748;37.600;2022-12-18T00:54:34;12.00;87.18
76577;DHT22;65441;44.748;37.600;2022-12-18T00:57:08;11.97;87.76
76577;DHT22;65441;44.748;37.600;2022-12-18T00:59:42;11.91;87.94
76577;DHT22;65441;44.748;37.600;2022-12-18T01:02:18;11.85;88.02
76577;DHT22;65441;44.748;37.600;2022-12-18T01:04:52;11.78;87.77
76577;DHT22;65441;44.748;37.600;2022-12-18T01:07:25;11.79;87.21
76577;DHT22;65441;44.748;37.600;2022-12-18T01:09:59;11.82;86.32
76577;DHT22;65441;44.748;37.600;2022-12-18T01:12:33;11.82;86.62
76577;DHT22;65441;44.748;37.600;2022-12-18T01:15:08;11.79;86.64
76577;DHT22;65441;44.748;37.600;2022-12-18T01:17:44;11.70;84.85
76577;DHT22;65441;44.748;37.600;2022-12-18T01:20:18;11.51;86.26
76577;DHT22;65441;44.748;37.600;2022-12-18T01:22:52;11.33;89.41
76577;DHT22;65441;44.748;37.600;2022-12-18T01:25:26;11.29;90.48
76577;DHT22;65441;44.748;37.600;2022-12-18T01:28:00;11.24;90.37
76577;DHT22;65441;44.748;37.600;2022-12-18T01:30:33;11.19;90.17
76577;DHT22;65441;44.748;37.600;2022-12-18T01:33:09;11.22;90.19
76577;DHT22;65441;44.748;37.600;2022-12-18T01:35:43;11.29;88.59
76577;DHT22;65441;44.748;37.600;2022-12-18T01:38:17;11.20;87.13
76577;DHT22;65441;44.748;37.600;2022-12-18T01:40:57;11.15;90.47
76577;DHT22;65441;44.748;37.600;2022-12-18T01:43:52;11.08;90.47
76577;DHT22;65441;44.748;37.600;2022-12-18T01:46:27;11.07;89.60
76577;DHT22;65441;44.748;37.600;2022-12-18T01:49:03;11.04;87.11
76577;DHT22;65441;44.748;37.600;2022-12-18T01:51:37;10.93;86.48
76577;DHT22;65441;44.748;37.600;2022-12-18T01:54:11;10.83;88.13
76577;DHT22;65441;44.748;37.600;2022-12-18T01:56:45;10.83;90.21
76577;DHT22;65441;44.748;37.600;2022-12-18T01:59:19;10.82;90.32
76577;DHT22;65441;44.748;37.600;2022-12-18T02:01:53;10.86;90.68
76577;DHT22;65441;44.748;37.600;2022-12-18T02:04:29;10.90;88.80
76577;DHT22;65441;44.748;37.600;2022-12-18T02:07:17;10.86;86.74
76577;DHT22;65441;44.748;37.600;2022-12-18T02:10:00;10.71;85.90
76577;DHT22;65441;44.748;37.600;2022-12-18T02:12:42;10.50;87.76
76577;DHT22;65441;44.748;37.600;2022-12-18T02:15:23;10.50;90.22
76577;DHT22;65441;44.748;37.600;2022-12-18T02:18:03;10.56;87.73
76577;DHT22;65441;44.748;37.600;2022-12-18T02:20:43;10.53;88.36
76577;DHT22;65441;44.748;37.600;2022-12-18T02:23:26;10.53;86.71
76577;DHT22;65441;44.748;37.600;2022-12-18T02:26:18;10.57;88.77
76577;DHT22;65441;44.748;37.600;2022-12-18T02:28:59;10.59;89.22
76577;DHT22;65441;44.748;37.600;2022-12-18T02:31:40;10.73;91.43
76577;DHT22;65441;44.748;37.600;2022-12-18T02:34:16;10.85;91.74
76577;DHT22;65441;44.748;37.600;2022-12-18T02:36:53;10.97;91.20
76577;DHT22;65441;44.748;37.600;2022-12-18T02:39:29;11.13;90.92
76577;DHT22;65441;44.748;37.600;2022-12-18T02:42:09;11.19;90.21
76577;DHT22;65441;44.748;37.600;2022-12-18T02:44:47;11.27;89.66
76577;DHT22;65441;44.748;37.600;2022-12-18T02:47:27;11.29;89.18
76577;DHT22;65441;44.748;37.600;2022-12-18T02:50:08;11.32;88.70
76577;DHT22;65441;44.748;37.600;2022-12-18T02:52:50;11.32;88.60
76577;DHT22;65441;44.748;37.600;2022-12-18T02:55:31;11.31;88.59
76577;DHT22;65441;44.748;37.600;2022-12-18T02:58:17;11.36;88.59
76577;DHT22;65441;44.748;37.600;2022-12-18T03:01:01;11.37;88.15
76577;DHT22;65441;44.748;37.600;2022-12-18T03:03:40;11.38;88.41
76577;DHT22;65441;44.748;37.600;2022-12-18T03:06:21;11.40;88.49
76577;DHT22;65441;44.748;37.600;2022-12-18T03:08:59;11.41;88.59
76577;DHT22;65441;44.748;37.600;2022-12-18T03:11:39;11.45;89.09
76577;DHT22;65441;44.748;37.600;2022-12-18T03:14:34;11.47;89.31
76577;DHT22;65441;44.748;37.600;2022-12-18T03:17:16;11.49;89.11
76577;DHT22;65441;44.748;37.600;2022-12-18T03:19:53;11.53;89.01
76577;DHT22;65441;44.748;37.600;2022-12-18T03:22:31;11.53;89.14
76577;DHT22;65441;44.748;37.600;2022-12-18T03:25:09;11.54;88.95
76577;DHT22;65441;44.748;37.600;2022-12-18T03:27:47;11.53;88.92
76577;DHT22;65441;44.748;37.600;2022-12-18T03:30:25;11.45;88.94
76577;DHT22;65441;44.748;37.600;2022-12-18T03:33:05;11.39;89.17
76577;DHT22;65441;44.748;37.600;2022-12-18T03:35:42;11.33;89.28
76577;DHT22;65441;44.748;37.600;2022-12-18T03:38:17;11.32;89.04
76577;DHT22;65441;44.748;37.600;2022-12-18T03:41:00;11.31;88.83
76577;DHT22;65441;44.748;37.600;2022-12-18T03:43:49;11.33;87.96
76577;DHT22;65441;44.748;37.600;2022-12-18T03:46:28;11.34;88.31
76577;DHT22;65441;44.748;37.600;2022-12-18T03:49:09;11.19;88.94
76577;DHT22;65441;44.748;37.600;2022-12-18T03:51:49;11.14;89.71
76577;DHT22;65441;44.748;37.600;2022-12-18T03:54:25;11.15;88.28
76577;DHT22;65441;44.748;37.600;2022-12-18T03:57:11;11.19;87.83
76577;DHT22;65441;44.748;37.600;2022-12-18T03:59:50;11.18;89.41
76577;DHT22;65441;44.748;37.600;2022-12-18T04:02:31;11.22;89.47
76577;DHT22;65441;44.748;37.600;2022-12-18T04:05:08;11.23;89.66
76577;DHT22;65441;44.748;37.600;2022-12-18T04:07:47;11.22;89.86
76577;DHT22;65441;44.748;37.600;2022-12-18T04:10:23;11.26;87.83
76577;DHT22;65441;44.748;37.600;2022-12-18T04:12:58;11.19;86.82
76577;DHT22;65441;44.748;37.600;2022-12-18T04:15:34;11.13;86.70
76577;DHT22;65441;44.748;37.600;2022-12-18T04:18:10;11.16;87.77
76577;DHT22;65441;44.748;37.600;2022-12-18T04:20:47;11.13;87.86
76577;DHT22;65441;44.748;37.600;2022-12-18T04:23:22;11.11;88.60
76577;DHT22;65441;44.748;37.600;2022-12-18T04:25:59;11.12;89.88
76577;DHT22;65441;44.748;37.600;2022-12-18T04:28:46;11.13;88.67
76577;DHT22;65441;44.748;37.600;2022-12-18T04:31:21;11.17;89.79
76577;DHT22;65441;44.748;37.600;2022-12-18T04:33:56;11.22;89.30
76577;DHT22;65441;44.748;37.600;2022-12-18T04:36:31;11.28;89.59
76577;DHT22;65441;44.748;37.600;2022-12-18T04:39:05;11.38;89.92
76577;DHT22;65441;44.748;37.600;2022-12-18T04:41:39;11.43;88.50
76577;DHT22;65441;44.748;37.600;2022-12-18T04:44:14;11.45;87.99
76577;DHT22;65441;44.748;37.600;2022-12-18T04:46:48;11.52;88.95
76577;DHT22;65441;44.748;37.600;2022-12-18T04:49:23;11.59;88.70
76577;DHT22;65441;44.748;37.600;2022-12-18T04:51:58;11.62;88.31
76577;DHT22;65441;44.748;37.600;2022-12-18T04:54:32;11.56;87.64
76577;DHT22;65441;44.748;37.600;2022-12-18T04:57:06;11.57;89.51
76577;DHT22;65441;44.748;37.600;2022-12-18T04:59:40;11.58;89.11
76577;DHT22;65441;44.748;37.600;2022-12-18T05:02:14;11.57;89.44
76577;DHT22;65441;44.748;37.600;2022-12-18T05:04:49;11.63;89.70
76577;DHT22;65441;44.748;37.600;2022-12-18T05:07:23;11.68;89.64
76577;DHT22;65441;44.748;37.600;2022-12-18T05:09:57;11.76;90.00
76577;DHT22;65441;44.748;37.600;2022-12-18T05:12:31;11.82;89.65
76577;DHT22;65441;44.748;37.600;2022-12-18T05:15:06;11.93;89.19
76577;DHT22;65441;44.748;37.600;2022-12-18T05:17:40;11.94;89.02
76577;DHT22;65441;44.748;37.600;2022-12-18T05:20:15;11.99;88.46
76577;DHT22;65441;44.748;37.600;2022-12-18T05:22:50;12.00;89.12
76577;DHT22;65441;44.748;37.600;2022-12-18T05:25:24;12.02;88.84
76577;DHT22;65441;44.748;37.600;2022-12-18T05:27:58;12.04;89.00
76577;DHT22;65441;44.748;37.600;2022-12-18T05:30:32;12.07;88.40
76577;DHT22;65441;44.748;37.600;2022-12-18T05:33:05;12.11;88.63
76577;DHT22;65441;44.748;37.600;2022-12-18T05:35:40;12.12;89.31
76577;DHT22;65441;44.748;37.600;2022-12-18T05:38:14;12.16;88.76
76577;DHT22;65441;44.748;37.600;2022-12-18T05:40:48;12.21;88.85
76577;DHT22;65441;44.748;37.600;2022-12-18T05:43:23;12.26;88.67
76577;DHT22;65441;44.748;37.600;2022-12-18T05:45:57;12.23;89.14
76577;DHT22;65441;44.748;37.600;2022-12-18T05:48:31;12.30;89.30
76577;DHT22;65441;44.748;37.600;2022-12-18T05:51:08;12.36;89.21
76577;DHT22;65441;44.748;37.600;2022-12-18T05:53:43;12.44;89.60
76577;DHT22;65441;44.748;37.600;2022-12-18T05:56:18;12.47;89.88
76577;DHT22;65441;44.748;37.600;2022-12-18T05:58:53;12.53;90.09
76577;DHT22;65441;44.748;37.600;2022-12-18T06:01:28;12.55;90.63
76577;DHT22;65441;44.748;37.600;2022-12-18T06:04:02;12.65;90.73
76577;DHT22;65441;44.748;37.600;2022-12-18T06:06:37;12.72;90.81
76577;DHT22;65441;44.748;37.600;2022-12-18T06:09:11;12.86;90.14
76577;DHT22;65441;44.748;37.600;2022-12-18T06:11:45;13.01;90.19
76577;DHT22;65441;44.748;37.600;2022-12-18T06:14:19;12.99;90.34
76577;DHT22;65441;44.748;37.600;2022-12-18T06:16:52;13.05;89.99
76577;DHT22;65441;44.748;37.600;2022-12-18T06:19:26;13.14;89.94
76577;DHT22;65441;44.748;37.600;2022-12-18T06:22:02;13.18;89.78
76577;DHT22;65441;44.748;37.600;2022-12-18T06:24:36;13.20;89.90
76577;DHT22;65441;44.748;37.600;2022-12-18T06:27:09;13.23;90.04
76577;DHT22;65441;44.748;37.600;2022-12-18T06:29:43;13.27;90.12
76577;DHT22;65441;44.748;37.600;2022-12-18T06:32:17;13.34;89.87
76577;DHT22;65441;44.748;37.600;2022-12-18T06:34:51;13.37;89.81
76577;DHT22;65441;44.748;37.600;2022-12-18T06:37:27;13.37;90.01
76577;DHT22;65441;44.748;37.600;2022-12-18T06:40:00;13.43;90.05
76577;DHT22;65441;44.748;37.600;2022-12-18T06:42:34;13.45;89.89
76577;DHT22;65441;44.748;37.600;2022-12-18T06:45:10;13.48;89.87
76577;DHT22;65441;44.748;37.600;2022-12-18T06:47:51;13.52;89.96
76577;DHT22;65441;44.748;37.600;2022-12-18T06:50:25;13.59;89.72
76577;DHT22;65441;44.748;37.600;2022-12-18T06:53:01;13.59;89.57
76577;DHT22;65441;44.748;37.600;2022-12-18T06:55:35;13.61;89.89
76577;DHT22;65441;44.748;37.600;2022-12-18T06:58:08;13.56;89.75
76577;DHT22;65441;44.748;37.600;2022-12-18T07:00:42;13.55;89.83
76577;DHT22;65441;44.748;37.600;2022-12-18T07:03:16;13.52;90.09
76577;DHT22;65441;44.748;37.600;2022-12-18T07:05:50;13.55;90.28
76577;DHT22;65441;44.748;37.600;2022-12-18T07:08:26;13.58;90.00
76577;DHT22;65441;44.748;37.600;2022-12-18T07:11:03;13.62;89.78
76577;DHT22;65441;44.748;37.600;2022-12-18T07:13:38;13.64;90.02
76577;DHT22;65441;44.748;37.600;2022-12-18T07:16:13;13.74;89.59
76577;DHT22;65441;44.748;37.600;2022-12-18T07:18:48;13.80;89.18
76577;DHT22;65441;44.748;37.600;2022-12-18T07:21:22;13.78;89.06
76577;DHT22;65441;44.748;37.600;2022-12-18T07:23:58;13.74;89.34
76577;DHT22;65441;44.748;37.600;2022-12-18T07:26:34;13.82;89.39
76577;DHT22;65441;44.748;37.600;2022-12-18T07:29:08;13.89;89.09
76577;DHT22;65441;44.748;37.600;2022-12-18T07:31:42;13.83;89.09
76577;DHT22;65441;44.748;37.600;2022-12-18T07:34:16;13.83;89.52
76577;DHT22;65441;44.748;37.600;2022-12-18T07:36:50;13.92;89.39
76577;DHT22;65441;44.748;37.600;2022-12-18T07:39:25;13.92;89.06
76577;DHT22;65441;44.748;37.600;2022-12-18T07:42:03;13.90;89.27
76577;DHT22;65441;44.748;37.600;2022-12-18T07:44:54;13.78;89.44
76577;DHT22;65441;44.748;37.600;2022-12-18T07:47:28;13.69;89.80
76577;DHT22;65441;44.748;37.600;2022-12-18T07:50:06;13.66;90.01
76577;DHT22;65441;44.748;37.600;2022-12-18T07:52:40;13.62;90.37
76577;DHT22;65441;44.748;37.600;2022-12-18T07:55:15;13.56;90.84
76577;DHT22;65441;44.748;37.600;2022-12-18T07:57:49;13.61;90.80
76577;DHT22;65441;44.748;37.600;2022-12-18T08:00:23;13.60;90.71
76577;DHT22;65441;44.748;37.600;2022-12-18T08:02:57;13.68;90.88
76577;DHT22;65441;44.748;37.600;2022-12-18T08:05:31;13.70;90.61
76577;DHT22;65441;44.748;37.600;2022-12-18T08:08:05;13.79;90.45
76577;DHT22;65441;44.748;37.600;2022-12-18T08:10:41;13.80;90.42
76577;DHT22;65441;44.748;37.600;2022-12-18T08:13:15;13.76;90.73
76577;DHT22;65441;44.748;37.600;2022-12-18T08:15:55;13.85;90.47
76577;DHT22;65441;44.748;37.600;2022-12-18T08:18:29;13.90;90.34
76577;DHT22;65441;44.748;37.600;2022-12-18T08:21:08;13.96;90.29
76577;DHT22;65441;44.748;37.600;2022-12-18T08:23:43;14.12;89.50
76577;DHT22;65441;44.748;37.600;2022-12-18T08:26:19;14.21;88.85
76577;DHT22;65441;44.748;37.600;2022-12-18T08:28:53;14.34;89.02
76577;DHT22;65441;44.748;37.600;2022-12-18T08:31:29;14.43;88.67
76577;DHT22;65441;44.748;37.600;2022-12-18T08:34:08;14.44;88.54
76577;DHT22;65441;44.748;37.600;2022-12-18T08:36:42;14.35;88.53
76577;DHT22;65441;44.748;37.600;2022-12-18T08:39:16;14.26;89.35
76577;DHT22;65441;44.748;37.600;2022-12-18T08:41:51;14.25;88.92
76577;DHT22;65441;44.748;37.600;2022-12-18T08:44:39;14.25;88.60
76577;DHT22;65441;44.748;37.600;2022-12-18T08:47:13;14.23;88.51
76577;DHT22;65441;44.748;37.600;2022-12-18T08:49:47;14.21;88.38
76577;DHT22;65441;44.748;37.600;2022-12-18T08:52:21;14.11;88.83
76577;DHT22;65441;44.748;37.600;2022-12-18T08:54:55;14.13;89.16
76577;DHT22;65441;44.748;37.600;2022-12-18T08:57:31;14.19;88.91
76577;DHT22;65441;44.748;37.600;2022-12-18T09:00:06;14.10;89.42
76577;DHT22;65441;44.748;37.600;2022-12-18T09:02:41;14.10;89.44
76577;DHT22;65441;44.748;37.600;2022-12-18T09:05:15;14.11;89.41
76577;DHT22;65441;44.748;37.600;2022-12-18T09:07:49;14.18;89.21
76577;DHT22;65441;44.748;37.600;2022-12-18T09:10:23;14.36;89.62
76577;DHT22;65441;44.748;37.600;2022-12-18T09:12:58;14.33;88.76
76577;DHT22;65441;44.748;37.600;2022-12-18T09:15:32;14.33;88.84
76577;DHT22;65441;44.748;37.600;2022-12-18T09:18:06;14.44;88.92
76577;DHT22;65441;44.748;37.600;2022-12-18T09:20:41;14.52;88.70
76577;DHT22;65441;44.748;37.600;2022-12-18T09:23:15;14.60;88.26
76577;DHT22;65441;44.748;37.600;2022-12-18T09:25:49;14.63;87.74
76577;DHT22;65441;44.748;37.600;2022-12-18T09:28:25;14.64;87.70
76577;DHT22;65441;44.748;37.600;2022-12-18T09:31:04;14.95;89.79
76577;DHT22;65441;44.748;37.600;2022-12-18T09:33:38;14.80;86.91
76577;DHT22;65441;44.748;37.600;2022-12-18T09:36:15;15.06;87.80
76577;DHT22;65441;44.748;37.600;2022-12-18T09:38:50;15.41;88.26
76577;DHT22;65441;44.748;37.600;2022-12-18T09:41:42;15.22;84.74
76577;DHT22;65441;44.748;37.600;2022-12-18T09:44:23;15.18;85.58
76577;DHT22;65441;44.748;37.600;2022-12-18T09:47:04;14.99;85.84
76577;DHT22;65441;44.748;37.600;2022-12-18T09:49:43;14.88;86.09
76577;DHT22;65441;44.748;37.600;2022-12-18T09:52:21;14.72;86.93
76577;DHT22;65441;44.748;37.600;2022-12-18T09:55:00;14.59;87.57
76577;DHT22;65441;44.748;37.600;2022-12-18T09:57:35;14.40;88.12
76577;DHT22;65441;44.748;37.600;2022-12-18T10:00:19;14.29;89.09
76577;DHT22;65441;44.748;37.600;2022-12-18T10:02:59;14.23;89.38
76577;DHT22;65441;44.748;37.600;2022-12-18T10:05:39;14.21;89.54
76577;DHT22;65441;44.748;37.600;2022-12-18T10:08:18;14.10;90.24
76577;DHT22;65441;44.748;37.600;2022-12-18T10:10:59;14.11;89.48
76577;DHT22;65441;44.748;37.600;2022-12-18T10:13:40;14.11;89.75
76577;DHT22;65441;44.748;37.600;2022-12-18T10:16:19;14.14;89.75
76577;DHT22;65441;44.748;37.600;2022-12-18T10:19:05;14.11;89.32
76577;DHT22;65441;44.748;37.600;2022-12-18T10:21:47;14.07;89.55
76577;DHT22;65441;44.748;37.600;2022-12-18T10:24:30;14.12;89.58
76577;DHT22;65441;44.748;37.600;2022-12-18T10:27:13;14.07;89.83
76577;DHT22;65441;44.748;37.600;2022-12-18T10:29:49;14.08;89.58
76577;DHT22;65441;44.748;37.600;2022-12-18T10:32:26;14.08;89.47
76577;DHT22;65441;44.748;37.600;2022-12-18T10:35:01;14.11;89.36
76577;DHT22;65441;44.748;37.600;2022-12-18T10:37:35;14.15;89.53
76577;DHT22;65441;44.748;37.600;2022-12-18T10:40:11;14.12;89.33
76577;DHT22;65441;44.748;37.600;2022-12-18T10:42:45;14.14;89.44
76577;DHT22;65441;44.748;37.600;2022-12-18T10:45:20;14.18;89.47
76577;DHT22;65441;44.748;37.600;2022-12-18T10:47:55;14.19;89.54
76577;DHT22;65441;44.748;37.600;2022-12-18T10:50:32;14.21;89.13
76577;DHT22;65441;44.748;37.600;2022-12-18T10:53:13;14.17;89.49
76577;DHT22;65441;44.748;37.600;2022-12-18T10:55:52;14.19;89.55
76577;DHT22;65441;44.748;37.600;2022-12-18T10:58:28;14.21;89.77
76577;DHT22;65441;44.748;37.600;2022-12-18T11:01:09;14.27;89.60
76577;DHT22;65441;44.748;37.600;2022-12-18T11:03:46;14.32;89.47
76577;DHT22;65441;44.748;37.600;2022-12-18T11:06:33;14.44;89.09
76577;DHT22;65441;44.748;37.600;2022-12-18T11:09:19;14.40;87.48
76577;DHT22;65441;44.748;37.600;2022-12-18T11:11:56;14.11;86.86
76577;DHT22;65441;44.748;37.600;2022-12-18T11:14:33;13.96;87.19
76577;DHT22;65441;44.748;37.600;2022-12-18T11:17:18;13.77;87.71
76577;DHT22;65441;44.748;37.600;2022-12-18T11:19:57;13.69;87.80
76577;DHT22;65441;44.748;37.600;2022-12-18T11:22:33;13.63;88.31
76577;DHT22;65441;44.748;37.600;2022-12-18T11:25:19;13.53;87.19
76577;DHT22;65441;44.748;37.600;2022-12-18T11:27:55;13.50;87.90
76577;DHT22;65441;44.748;37.600;2022-12-18T11:30:31;13.44;88.13
76577;DHT22;65441;44.748;37.600;2022-12-18T11:33:09;13.27;88.02
76577;DHT22;65441;44.748;37.600;2022-12-18T11:35:48;13.18;88.33
76577;DHT22;65441;44.748;37.600;2022-12-18T11:38:24;13.14;88.65
76577;DHT22;65441;44.748;37.600;2022-12-18T11:41:03;13.10;88.31
76577;DHT22;65441;44.748;37.600;2022-12-18T11:43:42;13.03;88.21
76577;DHT22;65441;44.748;37.600;2022-12-18T11:46:23;12.94;88.31
76577;DHT22;65441;44.748;37.600;2022-12-18T11:49:03;12.87;88.06
76577;DHT22;65441;44.748;37.600;2022-12-18T11:51:47;12.92;88.24
76577;DHT22;65441;44.748;37.600;2022-12-18T11:54:22;12.74;87.69
76577;DHT22;65441;44.748;37.600;2022-12-18T11:56:58;12.57;87.77
76577;DHT22;65441;44.748;37.600;2022-12-18T11:59:41;12.44;88.08
76577;DHT22;65441;44.748;37.600;2022-12-18T12:02:32;12.32;87.67
76577;DHT22;65441;44.748;37.600;2022-12-18T12:05:24;12.18;88.17
76577;DHT22;65441;44.748;37.600;2022-12-18T12:08:07;12.10;88.31
76577;DHT22;65441;44.748;37.600;2022-12-18T12:10:51;12.05;88.02
76577;DHT22;65441;44.748;37.600;2022-12-18T12:13:38;11.84;88.73
76577;DHT22;65441;44.748;37.600;2022-12-18T12:16:17;11.90;88.80
76577;DHT22;65441;44.748;37.600;2022-12-18T12:19:16;11.90;88.17
76577;DHT22;65441;44.748;37.600;2022-12-18T12:21:56;11.89;88.58
76577;DHT22;65441;44.748;37.600;2022-12-18T12:24:43;11.75;88.18
76577;DHT22;65441;44.748;37.600;2022-12-18T12:27:24;11.61;89.19
76577;DHT22;65441;44.748;37.600;2022-12-18T12:30:16;11.63;89.15
76577;DHT22;65441;44.748;37.600;2022-12-18T12:33:07;11.58;89.44
76577;DHT22;65441;44.748;37.600;2022-12-18T12:35:49;11.55;89.73
76577;DHT22;65441;44.748;37.600;2022-12-18T12:38:29;11.52;89.24
76577;DHT22;65441;44.748;37.600;2022-12-18T12:41:09;11.29;89.09
76577;DHT22;65441;44.748;37.600;2022-12-18T12:44:07;11.27;89.93
76577;DHT22;65441;44.748;37.600;2022-12-18T12:46:42;11.31;89.95
76577;DHT22;65441;44.748;37.600;2022-12-18T12:49:19;11.33;89.45
76577;DHT22;65441;44.748;37.600;2022-12-18T12:52:03;11.24;89.50
76577;DHT22;65441;44.748;37.600;2022-12-18T12:54:38;11.12;89.67
76577;DHT22;65441;44.748;37.600;2022-12-18T12:57:20;11.20;89.52
76577;DHT22;65441;44.748;37.600;2022-12-18T13:00:01;10.90;89.50
76577;DHT22;65441;44.748;37.600;2022-12-18T13:02:41;10.87;89.95
76577;DHT22;65441;44.748;37.600;2022-12-18T13:05:21;10.86;89.57
76577;DHT22;65441;44.748;37.600;2022-12-18T13:08:02;10.69;89.69
76577;DHT22;65441;44.748;37.600;2022-12-18T13:10:37;10.52;90.21
76577;DHT22;65441;44.748;37.600;2022-12-18T13:13:14;10.52;90.21
76577;DHT22;65441;44.748;37.600;2022-12-18T13:15:49;10.42;89.95
76577;DHT22;65441;44.748;37.600;2022-12-18T13:18:36;10.38;89.85
76577;DHT22;65441;44.748;37.600;2022-12-18T13:21:18;10.36;90.35
76577;DHT22;65441;44.748;37.600;2022-12-18T13:23:55;10.84;90.15
76577;DHT22;65441;44.748;37.600;2022-12-18T13:26:33;11.16;89.02
76577;DHT22;65441;44.748;37.600;2022-12-18T13:29:09;11.36;90.93
76577;DHT22;65441;44.748;37.600;2022-12-18T13:32:18;11.41;89.63
76577;DHT22;65441;44.748;37.600;2022-12-18T13:38:21;11.38;87.78
76577;DHT22;65441;44.748;37.600;2022-12-18T13:40:57;11.22;87.61
76577;DHT22;65441;44.748;37.600;2022-12-18T13:43:38;10.89;85.59
76577;DHT22;65441;44.748;37.600;2022-12-18T13:46:23;10.74;86.15
76577;DHT22;65441;44.748;37.600;2022-12-18T13:49:00;10.60;87.72
76577;DHT22;65441;44.748;37.600;2022-12-18T13:51:35;10.65;86.61
76577;DHT22;65441;44.748;37.600;2022-12-18T13:54:19;10.68;87.16
76577;DHT22;65441;44.748;37.600;2022-12-18T13:56:54;10.54;87.80
76577;DHT22;65441;44.748;37.600;2022-12-18T13:59:33;10.33;87.03
76577;DHT22;65441;44.748;37.600;2022-12-18T14:02:28;10.36;87.19
76577;DHT22;65441;44.748;37.600;2022-12-18T14:05:03;10.26;87.36
76577;DHT22;65441;44.748;37.600;2022-12-18T14:07:38;10.41;86.58
76577;DHT22;65441;44.748;37.600;2022-12-18T14:10:14;10.44;85.67
76577;DHT22;65441;44.748;37.600;2022-12-18T14:12:50;10.36;85.14
76577;DHT22;65441;44.748;37.600;2022-12-18T14:15:32;10.37;85.17
76577;DHT22;65441;44.748;37.600;2022-12-18T14:18:19;10.14;85.08
76577;DHT22;65441;44.748;37.600;2022-12-18T14:20:54;9.93;86.14
76577;DHT22;65441;44.748;37.600;2022-12-18T14:23:31;9.78;87.44
76577;DHT22;65441;44.748;37.600;2022-12-18T14:26:21;9.66;86.71
76577;DHT22;65441;44.748;37.600;2022-12-18T14:28:56;9.81;87.67
76577;DHT22;65441;44.748;37.600;2022-12-18T14:31:31;10.14;88.85
76577;DHT22;65441;44.748;37.600;2022-12-18T14:34:15;10.28;85.89
76577;DHT22;65441;44.748;37.600;2022-12-18T14:36:52;10.21;85.96
76577;DHT22;65441;44.748;37.600;2022-12-18T14:39:28;10.28;85.49
76577;DHT22;65441;44.748;37.600;2022-12-18T14:42:02;10.36;84.26
76577;DHT22;65441;44.748;37.600;2022-12-18T14:44:36;10.07;85.84
76577;DHT22;65441;44.748;37.600;2022-12-18T14:47:13;10.19;86.86
76577;DHT22;65441;44.748;37.600;2022-12-18T14:49:49;10.37;86.87
76577;DHT22;65441;44.748;37.600;2022-12-18T14:52:29;10.36;83.80
76577;DHT22;65441;44.748;37.600;2022-12-18T14:55:13;10.30;84.39
76577;DHT22;65441;44.748;37.600;2022-12-18T14:57:50;10.11;86.11
76577;DHT22;65441;44.748;37.600;2022-12-18T15:00:26;9.81;85.34
76577;DHT22;65441;44.748;37.600;2022-12-18T15:03:03;9.98;86.57
76577;DHT22;65441;44.748;37.600;2022-12-18T15:05:42;9.76;83.74
76577;DHT22;65441;44.748;37.600;2022-12-18T15:08:30;9.83;86.89
76577;DHT22;65441;44.748;37.600;2022-12-18T15:11:32;9.60;84.77
76577;DHT22;65441;44.748;37.600;2022-12-18T15:14:30;9.50;87.46
76577;DHT22;65441;44.748;37.600;2022-12-18T15:17:12;9.37;85.15
76577;DHT22;65441;44.748;37.600;2022-12-18T15:19:48;9.40;92.14
76577;DHT22;65441;44.748;37.600;2022-12-18T15:22:27;9.56;86.08
76577;DHT22;65441;44.748;37.600;2022-12-18T15:25:04;9.36;84.44
76577;DHT22;65441;44.748;37.600;2022-12-18T15:27:54;9.02;89.34
76577;DHT22;65441;44.748;37.600;2022-12-18T15:30:28;9.02;88.69
76577;DHT22;65441;44.748;37.600;2022-12-18T15:33:24;8.94;86.45
76577;DHT22;65441;44.748;37.600;2022-12-18T15:35:59;9.33;89.41
76577;DHT22;65441;44.748;37.600;2022-12-18T15:38:34;9.15;88.02
76577;DHT22;65441;44.748;37.600;2022-12-18T15:41:13;8.85;85.91
76577;DHT22;65441;44.748;37.600;2022-12-18T15:43:49;8.68;85.16
76577;DHT22;65441;44.748;37.600;2022-12-18T15:46:24;9.17;90.78
76577;DHT22;65441;44.748;37.600;2022-12-18T15:48:58;9.14;84.46
76577;DHT22;65441;44.748;37.600;2022-12-18T15:51:34;9.37;84.19
76577;DHT22;65441;44.748;37.600;2022-12-18T15:54:13;9.25;81.51
76577;DHT22;65441;44.748;37.600;2022-12-18T15:56:47;9.18;84.74
76577;DHT22;65441;44.748;37.600;2022-12-18T15:59:38;8.81;85.84
76577;DHT22;65441;44.748;37.600;2022-12-18T16:02:25;8.98;83.29
76577;DHT22;65441;44.748;37.600;2022-12-18T16:05:00;8.97;86.13
76577;DHT22;65441;44.748;37.600;2022-12-18T16:07:34;8.87;87.31
76577;DHT22;65441;44.748;37.600;2022-12-18T16:10:10;8.87;86.48
76577;DHT22;65441;44.748;37.600;2022-12-18T16:16:07;8.64;87.89
76577;DHT22;65441;44.748;37.600;2022-12-18T16:18:41;8.57;86.25
76577;DHT22;65441;44.748;37.600;2022-12-18T16:21:22;8.62;83.69
76577;DHT22;65441;44.748;37.600;2022-12-18T16:23:57;8.52;86.04
76577;DHT22;65441;44.748;37.600;2022-12-18T16:26:33;8.57;87.06
76577;DHT22;65441;44.748;37.600;2022-12-18T16:29:12;8.92;86.69